Home > Products > Valid Products > TAF

000
FTUS43 KAPX 050534
TAFAPN
TAF
KAPN 050534Z 0506/0606 28005KT P6SM SCT035
     FM050800 00000KT P6SM FEW035
     FM051500 30010KT P6SM BKN035=



000
FTUS43 KAPX 050534
TAFTVC
TAF
KTVC 050534Z 0506/0606 00000KT P6SM OVC024
      TEMPO 0507/0508 SCT025
     FM050800 00000KT P6SM SCT025
     FM051600 28007KT P6SM VCSH BKN035=



000
FTUS43 KAPX 050534
TAFPLN
TAF
KPLN 050534Z 0506/0606 29004KT P6SM SKC
     FM050800 00000KT P6SM SKC
     FM051500 28009KT P6SM SCT040=



000
FTUS43 KAPX 050349 AAF
TAFTVC
TAF AMD
KTVC 050349Z 0504/0524 02005KT P6SM VCSH BKN035
      TEMPO 0504/0506 BKN025
     FM050600 VRB03KT P6SM SCT035
     FM051600 28007KT P6SM VCSH BKN035=



000
FTUS43 KAPX 050326 AAE
TAFTVC
TAF AMD
KTVC 050326Z 0503/0524 02005KT P6SM VCSH BKN035
     FM050500 VRB03KT P6SM SCT035
     FM051600 28007KT P6SM VCSH BKN035=



000
FTUS43 KAPX 050317 AAD
TAFTVC
TAF AMD
KTVC 050317Z 0503/0524 02006KT P6SM VCSH OVC025
     FM050500 VRB03KT P6SM SCT035
     FM051600 28007KT P6SM VCSH BKN035=



000
FTUS43 KAPX 050317 AAD
TAFTVC
TAF AMD
KTVC 050317Z 0503/0524 02006KT P6SM VCSH OVC025
     FM050500 VRB03KT P6SM SCT035
     FM051600 28007KT P6SM VCSH BKN035=



000
FTUS43 KAPX 050202 AAC
TAFTVC
TAF AMD
KTVC 050202Z 0502/0524 01007KT P6SM -SHSN BKN035
      TEMPO 0502/0503 2SM -SHSN BKN025
     FM050300 34008KT P6SM VCSH BKN035
     FM050500 VRB03KT P6SM SCT035
     FM051600 28007KT P6SM VCSH BKN035=



000
FTUS43 KAPX 050112 AAB
TAFAPN
TAF AMD
KAPN 050112Z 0501/0524 33007KT 1SM -SN BKN015
     FM050130 30007KT P6SM VCSH BKN035
     FM050200 29008KT P6SM SCT045
     FM051500 30010KT P6SM BKN035=



000
FTUS43 KAPX 050009 AAB
TAFTVC
TAF AMD
KTVC 050009Z 0500/0524 31010KT P6SM -SHSN BKN035
      TEMPO 0500/0502 2SM -SHSN BKN025
     FM050200 32008KT P6SM VCSH BKN035
     FM050500 VRB03KT P6SM SCT035
     FM051600 28007KT P6SM VCSH BKN035=



000
FTUS43 KAPX 050008 AAA
TAFAPN
TAF AMD
KAPN 050008Z 0500/0524 29008KT P6SM VCSH BKN035
     FM050200 29008KT P6SM SCT045
     FM051500 30010KT P6SM BKN035=



000
FTUS43 KAPX 050008 AAA
TAFAPN
TAF AMD
KAPN 050008Z 0500/0524 29008KT P6SM VCSH BKN035
     FM050200 29008KT P6SM SCT045
     FM051500 30010KT P6SM BKN035=



000
FTUS43 KAPX 042347 AAA
TAFTVC
TAF AMD
KTVC 042347Z 0500/0524 29012G18KT P6SM -SHSN BKN035
      TEMPO 0500/0502 2SM -SHSN BKN025
     FM050200 32008KT P6SM VCSH BKN035
     FM050500 VRB03KT P6SM SCT035
     FM051600 28007KT P6SM VCSH BKN035=



000
FTUS43 KAPX 042347 AAA
TAFTVC
TAF AMD
KTVC 042347Z 0500/0524 29012G18KT P6SM -SHSN BKN035
      TEMPO 0500/0502 2SM -SHSN BKN025
     FM050200 32008KT P6SM VCSH BKN035
     FM050500 VRB03KT P6SM SCT035
     FM051600 28007KT P6SM VCSH BKN035=



000
FTUS43 KAPX 042333
TAFAPN
TAF
KAPN 042333Z 0500/0524 31008G16KT P6SM VCSH BKN035
     FM050200 29008KT P6SM SCT045
     FM051500 30010KT P6SM BKN035=



000
FTUS43 KAPX 042333
TAFPLN
TAF
KPLN 042333Z 0500/0524 32012KT P6SM BKN035
     FM050200 32004KT P6SM SCT035
     FM051500 28009KT P6SM SCT040=



000
FTUS43 KAPX 042333
TAFTVC
TAF
KTVC 042333Z 0500/0524 29012G18KT P6SM -SHSN BKN035
      TEMPO 0500/0502 3SM -SHSN BKN025
     FM050200 32008KT P6SM VCSH BKN035
     FM050500 VRB03KT P6SM SCT035
     FM051600 28007KT P6SM VCSH BKN035=



000
FTUS43 KAPX 042333
TAFAPN
TAF
KAPN 042333Z 0500/0524 31008G16KT P6SM VCSH BKN035
     FM050200 29008KT P6SM SCT045
     FM051500 30010KT P6SM BKN035=



000
FTUS43 KAPX 042333
TAFPLN
TAF
KPLN 042333Z 0500/0524 32012KT P6SM BKN035
     FM050200 32004KT P6SM SCT035
     FM051500 28009KT P6SM SCT040=



000
FTUS43 KAPX 042333
TAFTVC
TAF
KTVC 042333Z 0500/0524 29012G18KT P6SM -SHSN BKN035
      TEMPO 0500/0502 3SM -SHSN BKN025
     FM050200 32008KT P6SM VCSH BKN035
     FM050500 VRB03KT P6SM SCT035
     FM051600 28007KT P6SM VCSH BKN035=



000
FTUS43 KAPX 042321 AAB
TAFPLN
TAF AMD
KPLN 042321Z 0423/0518 32012G22KT 3SM -SHSN OVC035
     FM050000 30011KT P6SM BKN035
     FM050200 30004KT P6SM SCT035
     FM051500 27008KT P6SM SCT040=



000
FTUS43 KAPX 042218 AAB
TAFTVC
TAF AMD
KTVC 042218Z 0422/0518 29012G18KT P6SM -SHSN SCT025 BKN035
      TEMPO 0422/0502 3SM -SHSN BKN029
     FM050200 33008KT P6SM BKN035
     FM050500 VRB03KT P6SM SCT035
     FM051600 28007KT P6SM BKN028=



000
FTUS43 KAPX 042218 AAB
TAFTVC
TAF AMD
KTVC 042218Z 0422/0518 29012G18KT P6SM -SHSN SCT025 BKN035
      TEMPO 0422/0502 3SM -SHSN BKN029
     FM050200 33008KT P6SM BKN035
     FM050500 VRB03KT P6SM SCT035
     FM051600 28007KT P6SM BKN028=



000
FTUS43 KAPX 042146 AAA
TAFTVC
TAF AMD
KTVC 042146Z 0422/0518 26012KT P6SM -SHSN SCT025 BKN035
      TEMPO 0422/0502 3SM -SHSN BKN029
     FM050200 33008KT P6SM BKN035
     FM050500 VRB03KT P6SM SCT035
     FM051600 28007KT P6SM BKN028=



000
FTUS43 KAPX 042142 AAA
TAFAPN
TAF AMD
KAPN 042142Z 0422/0518 30011G18KT P6SM -SHSN BKN045
     FM050000 32007KT P6SM SCT045
     FM051500 30007KT P6SM BKN035=



000
FTUS43 KAPX 042142 AAA
TAFAPN
TAF AMD
KAPN 042142Z 0422/0518 30011G18KT P6SM -SHSN BKN045
     FM050000 32007KT P6SM SCT045
     FM051500 30007KT P6SM BKN035=



000
FTUS43 KAPX 042138 AAA
TAFPLN
TAF AMD
KPLN 042138Z 0422/0518 30012KT 2SM -SHSN SCT025 BKN028
      TEMPO 0422/0423 1SM -SHSN BKN019
     FM050000 30011KT P6SM BKN035
     FM050200 30004KT P6SM SCT035
     FM051500 27008KT P6SM SCT040=



000
FTUS43 KAPX 041737
TAFTVC
TAF
KTVC 041737Z 0418/0518 29012KT P6SM -SHSN SCT026 BKN035
      TEMPO 0418/0422 3SM -SHSN BKN029
     FM050100 31008KT P6SM BKN035
     FM050800 VRB03KT P6SM SCT035
     FM051600 28007KT P6SM BKN028=



000
FTUS43 KAPX 041737
TAFPLN
TAF
KPLN 041737Z 0418/0518 30012G22KT P6SM -SHSN SCT025 OVC035
     FM042300 30011KT P6SM BKN035
     FM050200 30004KT P6SM SCT035
     FM051500 27008KT P6SM SCT040=



000
FTUS43 KAPX 041737
TAFAPN
TAF
KAPN 041737Z 0418/0518 30011G18KT P6SM -SHSN BKN029
      TEMPO 0418/0422 3SM -SHSN
     FM042300 32009KT P6SM BKN035
     FM050200 30004KT P6SM SCT035
     FM051500 30007KT P6SM BKN035=



000
FTUS43 KAPX 041737
TAFAPN
TAF
KAPN 041737Z 0418/0518 30011G18KT P6SM -SHSN BKN029
      TEMPO 0418/0422 3SM -SHSN
     FM042300 32009KT P6SM BKN035
     FM050200 30004KT P6SM SCT035
     FM051500 30007KT P6SM BKN035=



000
FTUS43 KAPX 041737
TAFPLN
TAF
KPLN 041737Z 0418/0518 30012G22KT P6SM -SHSN SCT025 OVC035
     FM042300 30011KT P6SM BKN035
     FM050200 30004KT P6SM SCT035
     FM051500 27008KT P6SM SCT040=



000
FTUS43 KAPX 041737
TAFTVC
TAF
KTVC 041737Z 0418/0518 29012KT P6SM -SHSN SCT026 BKN035
      TEMPO 0418/0422 3SM -SHSN BKN029
     FM050100 31008KT P6SM BKN035
     FM050800 VRB03KT P6SM SCT035
     FM051600 28007KT P6SM BKN028=



000
FTUS43 KAPX 041120
TAFPLN
TAF
KPLN 041120Z 0412/0512 30012G21KT P6SM OVC035
     FM042000 31011KT 6SM -SHSN OVC030
     FM050100 30005KT P6SM SCT035=



000
FTUS43 KAPX 041120
TAFTVC
TAF
KTVC 041120Z 0412/0512 30011KT P6SM SCT035
     FM041600 31011KT P6SM BKN029
     FM041900 29012KT 6SM -SHSN OVC028
     FM042100 29012KT 3SM -SHSN OVC027
     FM050100 30008KT P6SM BKN035
     FM050800 VRB03KT P6SM SCT030=



000
FTUS43 KAPX 041120
TAFAPN
TAF
KAPN 041120Z 0412/0512 29006KT P6SM OVC035
     FM041500 30011KT P6SM BKN035
     FM041800 32011KT P6SM BKN028
     FM042100 32010KT P6SM OVC035
     FM050300 30004KT P6SM SCT035=



000
FTUS43 KAPX 040535
TAFTVC
TAF
KTVC 040535Z 0406/0506 22005KT P6SM SCT040
     FM040700 30012G23KT P6SM BKN035
     FM041200 28012G18KT P6SM VCSH SCT025 BKN035=



000
FTUS43 KAPX 040535
TAFAPN
TAF
KAPN 040535Z 0406/0506 27010KT P6SM BKN035
      TEMPO 0406/0408 3SM -SHSN OVC030
     FM041400 29012G18KT P6SM SCT025 OVC035=



000
FTUS43 KAPX 040535
TAFPLN
TAF
KPLN 040535Z 0406/0506 29011G19KT P6SM VCSH BKN035
      TEMPO 0406/0408 -SHSN BKN025
     FM041300 29012G20KT P6SM SCT025 OVC035=



000
FTUS43 KAPX 040535
TAFPLN
TAF
KPLN 040535Z 0406/0506 29011G19KT P6SM VCSH BKN035
      TEMPO 0406/0408 -SHSN BKN025
     FM041300 29012G20KT P6SM SCT025 OVC035=



000
FTUS43 KAPX 040535
TAFTVC
TAF
KTVC 040535Z 0406/0506 22005KT P6SM SCT040
     FM040700 30012G23KT P6SM BKN035
     FM041200 28012G18KT P6SM VCSH SCT025 BKN035=



000
FTUS43 KAPX 040343 AAB
TAFPLN
TAF AMD
KPLN 040343Z 0404/0424 28010G18KT P6SM BKN035
     FM040500 29011G19KT P6SM VCSH BKN035
      TEMPO 0405/0408 -SHSN BKN025
     FM041300 29012G20KT P6SM SCT025 OVC035=



000
FTUS43 KAPX 040335 AAB
TAFTVC
TAF AMD
KTVC 040335Z 0404/0424 24008G16KT P6SM BKN035
     FM040600 30012G19KT P6SM VCSH BKN028
     FM041200 28012G18KT P6SM VCSH SCT025 BKN035=



000
FTUS43 KAPX 040257 AAB
TAFAPN
TAF AMD
KAPN 040257Z 0403/0424 28014G22KT P6SM OVC025
     FM040400 27010G16KT P6SM SCT035
     FM040600 27010KT P6SM VCSH BKN035
     FM041400 29012G18KT P6SM SCT025 OVC035=



000
FTUS43 KAPX 040257 AAB
TAFAPN
TAF AMD
KAPN 040257Z 0403/0424 28014G22KT P6SM OVC025
     FM040400 27010G16KT P6SM SCT035
     FM040600 27010KT P6SM VCSH BKN035
     FM041400 29012G18KT P6SM SCT025 OVC035=



000
FTUS43 KAPX 040204 AAA
TAFAPN
TAF AMD
KAPN 040204Z 0402/0424 26008KT P6SM OVC018 WS015/29035KT
     FM040400 27008KT P6SM SCT035 WS015/29035KT
     FM040600 27010KT P6SM VCSH BKN035
     FM041400 29012G18KT P6SM SCT025 OVC035=



000
FTUS43 KAPX 040204 AAA
TAFAPN
TAF AMD
KAPN 040204Z 0402/0424 26008KT P6SM OVC018 WS015/29035KT
     FM040400 27008KT P6SM SCT035 WS015/29035KT
     FM040600 27010KT P6SM VCSH BKN035
     FM041400 29012G18KT P6SM SCT025 OVC035=



000
FTUS43 KAPX 040201 AAA
TAFTVC
TAF AMD
KTVC 040201Z 0402/0424 25010KT P6SM SCT035
     FM040300 27010G16KT P6SM BKN035
     FM040600 30012G19KT P6SM VCSH BKN028
     FM041200 28012G18KT P6SM VCSH SCT025 BKN035=



000
FTUS43 KAPX 040201 AAA
TAFTVC
TAF AMD
KTVC 040201Z 0402/0424 25010KT P6SM SCT035
     FM040300 27010G16KT P6SM BKN035
     FM040600 30012G19KT P6SM VCSH BKN028
     FM041200 28012G18KT P6SM VCSH SCT025 BKN035=



000
FTUS43 KAPX 040159 AAA
TAFPLN
TAF AMD
KPLN 040159Z 0402/0424 28012KT P6SM FEW016 WS012/27030KT
     FM040300 28010G18KT P6SM BKN035
     FM040500 29011G19KT P6SM VCSH BKN025
     FM041300 29012G20KT P6SM SCT025 OVC035=



000
FTUS43 KAPX 040159 AAA
TAFPLN
TAF AMD
KPLN 040159Z 0402/0424 28012KT P6SM FEW016 WS012/27030KT
     FM040300 28010G18KT P6SM BKN035
     FM040500 29011G19KT P6SM VCSH BKN025
     FM041300 29012G20KT P6SM SCT025 OVC035=



000
FTUS43 KAPX 032339
TAFTVC
TAF
KTVC 032339Z 0400/0424 26012KT P6SM OVC015 WS012/28030KT
     FM040100 26012G18KT P6SM OVC025
     FM040600 30012G19KT P6SM VCSH BKN028
     FM041200 28012G18KT P6SM VCSH SCT025 BKN035=



000
FTUS43 KAPX 032339
TAFAPN
TAF
KAPN 032339Z 0400/0424 23006KT P6SM OVC012 WS020/27030KT
     FM040200 26008KT P6SM OVC018 WS015/29035KT
     FM040600 27010KT P6SM VCSH OVC025
     FM041400 29012G18KT P6SM SCT025 OVC035=



000
FTUS43 KAPX 032339
TAFAPN
TAF
KAPN 032339Z 0400/0424 23006KT P6SM OVC012 WS020/27030KT
     FM040200 26008KT P6SM OVC018 WS015/29035KT
     FM040600 27010KT P6SM VCSH OVC025
     FM041400 29012G18KT P6SM SCT025 OVC035=



000
FTUS43 KAPX 032339
TAFPLN
TAF
KPLN 032339Z 0400/0424 26008KT P6SM OVC012 WS012/29035KT
     FM040300 28010G18KT P6SM OVC012
     FM040500 29011G19KT P6SM VCSH BKN025
     FM041300 29012G20KT P6SM SCT025 OVC035=



000
FTUS43 KAPX 032339
TAFTVC
TAF
KTVC 032339Z 0400/0424 26012KT P6SM OVC015 WS012/28030KT
     FM040100 26012G18KT P6SM OVC025
     FM040600 30012G19KT P6SM VCSH BKN028
     FM041200 28012G18KT P6SM VCSH SCT025 BKN035=



000
FTUS43 KAPX 032339
TAFPLN
TAF
KPLN 032339Z 0400/0424 26008KT P6SM OVC012 WS012/29035KT
     FM040300 28010G18KT P6SM OVC012
     FM040500 29011G19KT P6SM VCSH BKN025
     FM041300 29012G20KT P6SM SCT025 OVC035=



000
FTUS43 KAPX 032206 AAA
TAFPLN
TAF AMD
KPLN 032206Z 0322/0418 20004KT 2SM -SN OVC015
     FM040000 28008KT 3SM -SN OVC015
     FM040200 28010KT P6SM OVC012 WS015/29034KT
     FM040600 29013G21KT P6SM OVC018 WS015/29034KT
     FM041300 28010G18KT P6SM SCT025 OVC035=



000
FTUS43 KAPX 032206 AAA
TAFPLN
TAF AMD
KPLN 032206Z 0322/0418 20004KT 2SM -SN OVC015
     FM040000 28008KT 3SM -SN OVC015
     FM040200 28010KT P6SM OVC012 WS015/29034KT
     FM040600 29013G21KT P6SM OVC018 WS015/29034KT
     FM041300 28010G18KT P6SM SCT025 OVC035=



000
FTUS43 KAPX 032202 AAB
TAFTVC
TAF AMD
KTVC 032202Z 0322/0418 24003KT 3SM -SN OVC012 WS015/23030KT
     FM032300 25008KT P6SM OVC012 WS020/29030KT
     FM040100 28010KT P6SM BKN028
     FM040600 30012G19KT P6SM BKN030=



000
FTUS43 KAPX 032144 AAA
TAFTVC
TAF AMD
KTVC 032144Z 0322/0418 22004KT 3SM -FZDZSN OVC012 WS015/20030KT
     FM032300 24008KT P6SM OVC012 WS020/29030KT
     FM040100 27008KT P6SM BKN028
     FM040600 30012G19KT P6SM BKN030=



000
FTUS43 KAPX 032144 AAA
TAFAPN
TAF AMD
KAPN 032144Z 0322/0418 19005KT 3SM -FZDZSN OVC009 WS020/25031KT
     FM040000 21006KT P6SM OVC012 WS015/29037KT
     FM040200 27008KT P6SM OVC018
     FM041500 30011KT P6SM SCT025 OVC035=



000
FTUS43 KAPX 032144 AAA
TAFTVC
TAF AMD
KTVC 032144Z 0322/0418 22004KT 3SM -FZDZSN OVC012 WS015/20030KT
     FM032300 24008KT P6SM OVC012 WS020/29030KT
     FM040100 27008KT P6SM BKN028
     FM040600 30012G19KT P6SM BKN030=



000
FTUS43 KAPX 032144 AAA
TAFAPN
TAF AMD
KAPN 032144Z 0322/0418 19005KT 3SM -FZDZSN OVC009 WS020/25031KT
     FM040000 21006KT P6SM OVC012 WS015/29037KT
     FM040200 27008KT P6SM OVC018
     FM041500 30011KT P6SM SCT025 OVC035=



000
FTUS43 KAPX 031740
TAFAPN
TAF
KAPN 031740Z 0318/0418 16012KT 1SM -SN SCT015 OVC025
      TEMPO 0318/0320 1/2SM SN OVC012
     FM032100 19005KT 2SM -FZDZSN OVC009 WS020/25031KT
     FM040000 21006KT P6SM OVC012 WS015/29037KT
     FM040200 27008KT P6SM OVC018
     FM041500 30011KT P6SM SCT025 OVC035=



000
FTUS43 KAPX 031740
TAFTVC
TAF
KTVC 031740Z 0318/0418 14007KT 2SM -SN OVC022 WS015/18027KT
     FM032000 19008KT 3SM -FZDZSN OVC009 WS015/20030KT
     FM032300 24008KT P6SM OVC012 WS020/29030KT
     FM040100 27008KT P6SM BKN028
     FM040600 30012G19KT P6SM BKN030=



000
FTUS43 KAPX 031740
TAFPLN
TAF
KPLN 031740Z 0318/0418 16010KT 2SM -SN SCT015 OVC022
      TEMPO 0318/0320 1/2SM SN OVC009
     FM032200 19005KT 2SM -FZDZSN OVC009
     FM040200 22006KT P6SM OVC012 WS015/29034KT
     FM040600 29013G21KT P6SM OVC018 WS015/29034KT
     FM041300 28010G18KT P6SM SCT025 OVC035=



000
FTUS43 KAPX 031740
TAFAPN
TAF
KAPN 031740Z 0318/0418 16012KT 1SM -SN SCT015 OVC025
      TEMPO 0318/0320 1/2SM SN OVC012
     FM032100 19005KT 2SM -FZDZSN OVC009 WS020/25031KT
     FM040000 21006KT P6SM OVC012 WS015/29037KT
     FM040200 27008KT P6SM OVC018
     FM041500 30011KT P6SM SCT025 OVC035=



000
FTUS43 KAPX 031740
TAFTVC
TAF
KTVC 031740Z 0318/0418 14007KT 2SM -SN OVC022 WS015/18027KT
     FM032000 19008KT 3SM -FZDZSN OVC009 WS015/20030KT
     FM032300 24008KT P6SM OVC012 WS020/29030KT
     FM040100 27008KT P6SM BKN028
     FM040600 30012G19KT P6SM BKN030=



000
FTUS43 KAPX 031740
TAFPLN
TAF
KPLN 031740Z 0318/0418 16010KT 2SM -SN SCT015 OVC022
      TEMPO 0318/0320 1/2SM SN OVC009
     FM032200 19005KT 2SM -FZDZSN OVC009
     FM040200 22006KT P6SM OVC012 WS015/29034KT
     FM040600 29013G21KT P6SM OVC018 WS015/29034KT
     FM041300 28010G18KT P6SM SCT025 OVC035=



000
FTUS43 KAPX 031619 AAA
TAFPLN
TAF AMD
KPLN 031619Z 0316/0412 16010KT 2SM -SN SCT015 OVC022
      TEMPO 0316/0320 1/2SM SN OVC009
     FM032100 19005KT 2SM -FZDZSN OVC009
     FM040000 22006KT P6SM OVC012 WS015/29034KT
     FM040200 27008KT P6SM BKN028 WS015/29034KT
     FM040500 28010G18KT P6SM SCT025 BKN035=



000
FTUS43 KAPX 031610 AAA
TAFAPN
TAF AMD
KAPN 031610Z 0316/0412 16012KT 1SM -SN SCT015 OVC025
      TEMPO 0316/0320 1/2SM SN OVC012
     FM032100 19005KT 2SM -FZDZSN OVC009 WS020/25031KT
     FM040000 21006KT P6SM OVC012 WS015/29037KT
     FM040200 27008KT P6SM BKN028
     FM040500 28010KT P6SM SCT025 BKN035=



000
FTUS43 KAPX 031610 AAA
TAFAPN
TAF AMD
KAPN 031610Z 0316/0412 16012KT 1SM -SN SCT015 OVC025
      TEMPO 0316/0320 1/2SM SN OVC012
     FM032100 19005KT 2SM -FZDZSN OVC009 WS020/25031KT
     FM040000 21006KT P6SM OVC012 WS015/29037KT
     FM040200 27008KT P6SM BKN028
     FM040500 28010KT P6SM SCT025 BKN035=



000
FTUS43 KAPX 031433 AAB
TAFTVC
TAF AMD
KTVC 031433Z 0315/0412 15008KT 2SM -SN SCT009 OVC018 WS015/22025KT
      TEMPO 0315/0317 1SM -SN
     FM031700 14007KT 3/4SM -SN OVC005 WS015/18027KT
     FM032000 19008KT 2SM -FZDZSN OVC009
     FM032300 24008KT P6SM OVC012
     FM040100 27008KT P6SM BKN028=



000
FTUS43 KAPX 031433 AAB
TAFTVC
TAF AMD
KTVC 031433Z 0315/0412 15008KT 2SM -SN SCT009 OVC018 WS015/22025KT
      TEMPO 0315/0317 1SM -SN
     FM031700 14007KT 3/4SM -SN OVC005 WS015/18027KT
     FM032000 19008KT 2SM -FZDZSN OVC009
     FM032300 24008KT P6SM OVC012
     FM040100 27008KT P6SM BKN028=



000
FTUS43 KAPX 031407 AAA
TAFAPN
TAF AMD
KAPN 031407Z 0314/0412 15005KT 1SM -SN SCT015 BKN020 OVC040
      WS020/20027KT
     FM031700 16012KT 3/4SM -SN BKN005 OVC015 WS020/17031KT
     FM032100 19005KT 2SM -FZDZSN OVC009
     FM040000 21006KT P6SM OVC012
     FM040200 27008KT P6SM BKN028
     FM040500 28010KT P6SM SCT025 BKN035=



000
FTUS43 KAPX 031407 AAA
TAFAPN
TAF AMD
KAPN 031407Z 0314/0412 15005KT 1SM -SN SCT015 BKN020 OVC040
      WS020/20027KT
     FM031700 16012KT 3/4SM -SN BKN005 OVC015 WS020/17031KT
     FM032100 19005KT 2SM -FZDZSN OVC009
     FM040000 21006KT P6SM OVC012
     FM040200 27008KT P6SM BKN028
     FM040500 28010KT P6SM SCT025 BKN035=



000
FTUS43 KAPX 031406 AAA
TAFTVC
TAF AMD
KTVC 031406Z 0314/0412 15005KT P6SM -SN BKN040 OVC080 WS015/22025KT
     FM031500 15005KT 2SM -SN SCT009 OVC018 WS015/22025KT
     FM031700 14007KT 3/4SM -SN OVC005 WS015/18027KT
     FM032000 19008KT 2SM -FZDZSN OVC009
     FM032300 24008KT P6SM OVC012
     FM040100 27008KT P6SM BKN028=



000
FTUS43 KAPX 031406 AAA
TAFTVC
TAF AMD
KTVC 031406Z 0314/0412 15005KT P6SM -SN BKN040 OVC080 WS015/22025KT
     FM031500 15005KT 2SM -SN SCT009 OVC018 WS015/22025KT
     FM031700 14007KT 3/4SM -SN OVC005 WS015/18027KT
     FM032000 19008KT 2SM -FZDZSN OVC009
     FM032300 24008KT P6SM OVC012
     FM040100 27008KT P6SM BKN028=



000
FTUS43 KAPX 031132
TAFAPN
TAF
KAPN 031132Z 0312/0412 15005KT P6SM SCT022 OVC080 WS020/22025KT
      TEMPO 0312/0314 1 1/2SM -SN BKN009 OVC022
     FM031400 15007KT 4SM -SN SCT015 BKN028 OVC040 WS020/20027KT
     FM031700 16012KT 3/4SM -SN BKN005 OVC015 WS020/17031KT
     FM032100 19005KT 2SM -FZDZSN OVC009
     FM040000 21006KT P6SM OVC012
     FM040200 27008KT P6SM BKN028
     FM040500 28010KT P6SM SCT025 BKN035=



000
FTUS43 KAPX 031132
TAFPLN
TAF
KPLN 031132Z 0312/0412 00000KT P6SM SCT022 OVC080 WS020/22020KT
      TEMPO 0312/0314 1 1/2SM -SN BKN009 OVC022
     FM031400 15004KT 4SM -SN SCT015 BKN028 OVC040 WS020/20024KT
     FM031700 17005KT 3/4SM -SN BKN005 OVC015 WS020/17027KT
     FM032100 19005KT 2SM -FZDZSN OVC009
     FM040000 22006KT P6SM OVC012
     FM040200 27008KT P6SM BKN028
     FM040500 28010G18KT P6SM SCT025 BKN035=



000
FTUS43 KAPX 031132
TAFPLN
TAF
KPLN 031132Z 0312/0412 00000KT P6SM SCT022 OVC080 WS020/22020KT
      TEMPO 0312/0314 1 1/2SM -SN BKN009 OVC022
     FM031400 15004KT 4SM -SN SCT015 BKN028 OVC040 WS020/20024KT
     FM031700 17005KT 3/4SM -SN BKN005 OVC015 WS020/17027KT
     FM032100 19005KT 2SM -FZDZSN OVC009
     FM040000 22006KT P6SM OVC012
     FM040200 27008KT P6SM BKN028
     FM040500 28010G18KT P6SM SCT025 BKN035=



000
FTUS43 KAPX 031132
TAFAPN
TAF
KAPN 031132Z 0312/0412 15005KT P6SM SCT022 OVC080 WS020/22025KT
      TEMPO 0312/0314 1 1/2SM -SN BKN009 OVC022
     FM031400 15007KT 4SM -SN SCT015 BKN028 OVC040 WS020/20027KT
     FM031700 16012KT 3/4SM -SN BKN005 OVC015 WS020/17031KT
     FM032100 19005KT 2SM -FZDZSN OVC009
     FM040000 21006KT P6SM OVC012
     FM040200 27008KT P6SM BKN028
     FM040500 28010KT P6SM SCT025 BKN035=



000
FTUS43 KAPX 031132
TAFTVC
TAF
KTVC 031132Z 0312/0412 16005KT P6SM BKN040 OVC080 WS015/22025KT
     FM031400 15005KT 2SM -SN SCT009 OVC018 WS015/22025KT
     FM031600 14007KT 3/4SM -SN OVC005 WS015/18027KT
     FM032000 19008KT 2SM -FZDZSN OVC009
     FM032300 24008KT P6SM OVC012
     FM040100 27008KT P6SM BKN028=



000
FTUS43 KAPX 031132
TAFTVC
TAF
KTVC 031132Z 0312/0412 16005KT P6SM BKN040 OVC080 WS015/22025KT
     FM031400 15005KT 2SM -SN SCT009 OVC018 WS015/22025KT
     FM031600 14007KT 3/4SM -SN OVC005 WS015/18027KT
     FM032000 19008KT 2SM -FZDZSN OVC009
     FM032300 24008KT P6SM OVC012
     FM040100 27008KT P6SM BKN028=



000
FTUS43 KAPX 030845 AAA
TAFAPN
TAF AMD
KAPN 030845Z 0309/0406 00000KT P6SM OVC090
     FM031100 15005KT P6SM SCT022 OVC080 WS020/22025KT
      TEMPO 0311/0313 1 1/2SM -SN BKN009 OVC022
     FM031300 15007KT 4SM -SN SCT015 BKN028 OVC040 WS020/20027KT
     FM031700 16012KT 3/4SM -SN BKN005 OVC015 WS020/17031KT
     FM032100 19005KT 2SM -FZDZSN OVC009
     FM040000 21006KT P6SM OVC012
     FM040200 27008KT P6SM BKN028
     FM040500 28010KT P6SM SCT025 BKN035=



000
FTUS43 KAPX 030845 AAA
TAFAPN
TAF AMD
KAPN 030845Z 0309/0406 00000KT P6SM OVC090
     FM031100 15005KT P6SM SCT022 OVC080 WS020/22025KT
      TEMPO 0311/0313 1 1/2SM -SN BKN009 OVC022
     FM031300 15007KT 4SM -SN SCT015 BKN028 OVC040 WS020/20027KT
     FM031700 16012KT 3/4SM -SN BKN005 OVC015 WS020/17031KT
     FM032100 19005KT 2SM -FZDZSN OVC009
     FM040000 21006KT P6SM OVC012
     FM040200 27008KT P6SM BKN028
     FM040500 28010KT P6SM SCT025 BKN035=



000
FTUS43 KAPX 030840 AAA
TAFPLN
TAF AMD
KPLN 030840Z 0309/0406 00000KT P6SM OVC090
     FM031100 00000KT P6SM SCT022 OVC080 WS020/22020KT
      TEMPO 0311/0313 1 1/2SM -SN BKN009 OVC022
     FM031300 15004KT 4SM -SN SCT015 BKN028 OVC040 WS020/20024KT
     FM031700 17005KT 3/4SM -SN BKN005 OVC015 WS020/17027KT
     FM032100 19005KT 2SM -FZDZSN OVC009
     FM040000 22006KT P6SM OVC012
     FM040200 27008KT P6SM BKN028
     FM040500 28010G18KT P6SM SCT025 BKN035=



000
FTUS43 KAPX 030840 AAA
TAFPLN
TAF AMD
KPLN 030840Z 0309/0406 00000KT P6SM OVC090
     FM031100 00000KT P6SM SCT022 OVC080 WS020/22020KT
      TEMPO 0311/0313 1 1/2SM -SN BKN009 OVC022
     FM031300 15004KT 4SM -SN SCT015 BKN028 OVC040 WS020/20024KT
     FM031700 17005KT 3/4SM -SN BKN005 OVC015 WS020/17027KT
     FM032100 19005KT 2SM -FZDZSN OVC009
     FM040000 22006KT P6SM OVC012
     FM040200 27008KT P6SM BKN028
     FM040500 28010G18KT P6SM SCT025 BKN035=



000
FTUS43 KAPX 030828 AAA
TAFTVC
TAF AMD
KTVC 030828Z 0308/0406 00000KT P6SM OVC080
     FM031000 16005KT P6SM SCT022 OVC080 WS015/22025KT
      TEMPO 0310/0312 1 1/2SM -SN BKN009 OVC022
     FM031400 15005KT 2SM -SN SCT009 OVC018 WS015/22025KT
     FM031600 14007KT 3/4SM -SN OVC005 WS015/18027KT
     FM032000 19008KT 2SM -FZDZSN OVC009
     FM032300 24008KT P6SM OVC012
     FM040100 27008KT P6SM BKN028=



000
FTUS43 KAPX 030828 AAA
TAFTVC
TAF AMD
KTVC 030828Z 0308/0406 00000KT P6SM OVC080
     FM031000 16005KT P6SM SCT022 OVC080 WS015/22025KT
      TEMPO 0310/0312 1 1/2SM -SN BKN009 OVC022
     FM031400 15005KT 2SM -SN SCT009 OVC018 WS015/22025KT
     FM031600 14007KT 3/4SM -SN OVC005 WS015/18027KT
     FM032000 19008KT 2SM -FZDZSN OVC009
     FM032300 24008KT P6SM OVC012
     FM040100 27008KT P6SM BKN028=



000
FTUS43 KAPX 030659 RRA
TAFAPN
TAF
KAPN 030659Z 0307/0406 00000KT P6SM SKC
     FM031100 15007KT P6SM OVC100
     FM031400 16011KT 2SM -SN OVC025
     FM040300 26007KT P6SM OVC025=



000
FTUS43 KAPX 030659 RRA
TAFAPN
TAF
KAPN 030659Z 0307/0406 00000KT P6SM SKC
     FM031100 15007KT P6SM OVC100
     FM031400 16011KT 2SM -SN OVC025
     FM040300 26007KT P6SM OVC025=



000
FTUS43 KAPX 030659 RRA
TAFTVC
TAF
KTVC 030659Z 0307/0406 00000KT P6SM SKC
     FM030800 15005KT P6SM OVC090
     FM031400 15010KT 2SM -SN OVC015
     FM040100 28010KT P6SM OVC100=



000
FTUS43 KAPX 030659 RRA
TAFTVC
TAF
KTVC 030659Z 0307/0406 00000KT P6SM SKC
     FM030800 15005KT P6SM OVC090
     FM031400 15010KT 2SM -SN OVC015
     FM040100 28010KT P6SM OVC100=



000
FTUS43 KAPX 030659 RRA
TAFPLN
TAF
KPLN 030659Z 0307/0406 00000KT P6SM SKC
     FM030900 16009KT P6SM OVC080
     FM031400 16011KT 1 1/2SM -SN OVC015
     FM040300 28009KT P6SM OVC100=



000
FTUS43 KAPX 030659 RRA
TAFPLN
TAF
KPLN 030659Z 0307/0406 00000KT P6SM SKC
     FM030900 16009KT P6SM OVC080
     FM031400 16011KT 1 1/2SM -SN OVC015
     FM040300 28009KT P6SM OVC100=



000
FTUS43 KAPX 022334
TAFTVC
TAF
KTVC 022334Z 0300/0324 00000KT P6SM SKC
     FM030800 15005KT P6SM OVC090
     FM031400 15010KT 2SM -SN OVC015=



000
FTUS43 KAPX 022334
TAFPLN
TAF
KPLN 022334Z 0300/0324 00000KT P6SM SKC
     FM030900 16009KT P6SM OVC080
     FM031400 16011KT 1 1/2SM -SN OVC015=



000
FTUS43 KAPX 022334
TAFAPN
TAF
KAPN 022334Z 0300/0324 00000KT P6SM SKC
     FM031100 15007KT P6SM OVC100
     FM031400 16011KT 2SM -SN OVC025=



000
FTUS43 KAPX 021732
TAFAPN
TAF
KAPN 021732Z 0218/0318 30010G18KT P6SM SCT040
     FM030000 00000KT P6SM SKC
     FM031100 15007KT P6SM OVC100
     FM031400 16011KT 2SM -SN OVC025=



000
FTUS43 KAPX 021732
TAFPLN
TAF
KPLN 021732Z 0218/0318 30012G23KT P6SM SCT035
     FM022100 28012KT P6SM SKC
     FM030000 00000KT P6SM SKC
     FM030900 16009KT P6SM OVC080
     FM031400 16011KT 1 1/2SM -SN OVC015=



000
FTUS43 KAPX 021732
TAFTVC
TAF
KTVC 021732Z 0218/0318 33010KT P6SM SCT035
     FM022300 00000KT P6SM SKC
     FM030800 15005KT P6SM OVC090
     FM031400 15010KT 2SM -SN OVC015=



000
FTUS43 KAPX 021732
TAFPLN
TAF
KPLN 021732Z 0218/0318 30012G23KT P6SM SCT035
     FM022100 28012KT P6SM SKC
     FM030000 00000KT P6SM SKC
     FM030900 16009KT P6SM OVC080
     FM031400 16011KT 1 1/2SM -SN OVC015=



000
FTUS43 KAPX 021732
TAFAPN
TAF
KAPN 021732Z 0218/0318 30010G18KT P6SM SCT040
     FM030000 00000KT P6SM SKC
     FM031100 15007KT P6SM OVC100
     FM031400 16011KT 2SM -SN OVC025=



000
FTUS43 KAPX 021732
TAFTVC
TAF
KTVC 021732Z 0218/0318 33010KT P6SM SCT035
     FM022300 00000KT P6SM SKC
     FM030800 15005KT P6SM OVC090
     FM031400 15010KT 2SM -SN OVC015=



000
FTUS43 KAPX 021704 AAA
TAFTVC
TAF AMD
KTVC 021704Z 0217/0312 33010KT P6SM SCT035
     FM022300 00000KT P6SM SKC
     FM030800 15005KT P6SM OVC090=



000
FTUS43 KAPX 021704 AAA
TAFTVC
TAF AMD
KTVC 021704Z 0217/0312 33010KT P6SM SCT035
     FM022300 00000KT P6SM SKC
     FM030800 15005KT P6SM OVC090=



000
FTUS43 KAPX 021135
TAFTVC
TAF
KTVC 021135Z 0212/0312 30008KT P6SM -SHSN BKN035
     FM021500 30008G15KT P6SM SCT035
     FM022000 31007KT P6SM FEW035
     FM030100 00000KT P6SM SKC
     FM030800 16003KT P6SM OVC100=



000
FTUS43 KAPX 021135
TAFPLN
TAF
KPLN 021135Z 0212/0312 29011KT P6SM SKC
     FM021400 30009G17KT P6SM SCT035
     FM022200 27005KT P6SM FEW035
     FM030000 00000KT P6SM SCT250
     FM031000 15003KT P6SM OVC090=



000
FTUS43 KAPX 021135
TAFAPN
TAF
KAPN 021135Z 0212/0312 27008KT P6SM SKC
     FM021400 29010G18KT P6SM SCT035
     FM022200 28006KT P6SM FEW030
     FM030000 00000KT P6SM SCT250
     FM031100 16003KT P6SM OVC100=



000
FTUS43 KAPX 021135
TAFTVC
TAF
KTVC 021135Z 0212/0312 30008KT P6SM -SHSN BKN035
     FM021500 30008G15KT P6SM SCT035
     FM022000 31007KT P6SM FEW035
     FM030100 00000KT P6SM SKC
     FM030800 16003KT P6SM OVC100=



000
FTUS43 KAPX 021135
TAFPLN
TAF
KPLN 021135Z 0212/0312 29011KT P6SM SKC
     FM021400 30009G17KT P6SM SCT035
     FM022200 27005KT P6SM FEW035
     FM030000 00000KT P6SM SCT250
     FM031000 15003KT P6SM OVC090=



000
FTUS43 KAPX 021135
TAFAPN
TAF
KAPN 021135Z 0212/0312 27008KT P6SM SKC
     FM021400 29010G18KT P6SM SCT035
     FM022200 28006KT P6SM FEW030
     FM030000 00000KT P6SM SCT250
     FM031100 16003KT P6SM OVC100=



000
FTUS43 KAPX 021004 AAA
TAFPLN
TAF AMD
KPLN 021004Z 0210/0306 29011KT P6SM SKC
     FM021400 30009G17KT P6SM SCT035
     FM022200 27005KT P6SM FEW035
     FM030000 00000KT P6SM SCT250=



000
FTUS43 KAPX 021003 AAA
TAFTVC
TAF AMD
KTVC 021003Z 0210/0306 30010KT P6SM -SHSN BKN035
     FM021300 30007G14KT P6SM SCT035
     FM022000 31007KT P6SM FEW035
     FM030100 00000KT P6SM SKC=



000
FTUS43 KAPX 021002 AAB
TAFAPN
TAF AMD
KAPN 021002Z 0210/0306 27008KT P6SM SCT035
     FM021400 29010G18KT P6SM SCT035
     FM022200 28006KT P6SM FEW030
     FM030000 00000KT P6SM SCT250=



    US Dept of Commerce
    National Oceanic and Atmospheric Administration
    National Weather Service
    1325 East West Highway
    Silver Spring, MD 20910
    Page Author: NWS Internet Services Team
Disclaimer
Information Quality
Credits
Glossary
Privacy Policy
Freedom of Information Act (FOIA)
About Us
Career Opportunities